Time;durP1;ratioP1;P1;durP2;ratioP2;P2;SDS_P1;SDS_P2;PMS_P1;PMS_P2;Temp;Humidity;BMP_temperature;BMP_pressure;BME280_temperature;BME280_humidity;BME280_pressure;Samples;Min_cycle;Max_cycle;Signal;HPM_P1;HPM_P2
2022/03/04 00:01:30;;;;;;;17.07;11.73;;;;;;;-1.93;100.00;96240.78;5031385;27;102681;-60
2022/03/04 00:03:57;;;;;;;17.93;11.60;;;;;;;-1.95;100.00;96240.16;5035193;28;101724;-59
2022/03/04 00:06:26;;;;;;;15.93;11.93;;;;;;;-2.12;100.00;96240.47;5031612;28;102748;-59
2022/03/04 00:08:53;;;;;;;16.47;11.17;;;;;;;-2.27;100.00;96247.44;5031777;28;101806;-59
2022/03/04 00:11:20;;;;;;;14.67;11.53;;;;;;;-2.39;100.00;96248.81;5030549;28;104943;-59
2022/03/04 00:13:47;;;;;;;16.73;11.13;;;;;;;-2.63;100.00;96251.59;5029784;28;106402;-59
2022/03/04 00:16:14;;;;;;;16.97;11.20;;;;;;;-2.59;100.00;96245.06;5030060;28;101922;-59
2022/03/04 00:18:42;;;;;;;14.73;10.17;;;;;;;-2.65;100.00;96256.97;5030238;28;104647;-60
2022/03/04 00:21:09;;;;;;;16.40;10.90;;;;;;;-2.71;100.00;96246.44;5031281;28;102540;-60
2022/03/04 00:23:38;;;;;;;14.60;10.37;;;;;;;-2.48;100.00;96248.06;5034965;27;101805;-59
2022/03/04 00:26:07;;;;;;;15.13;11.03;;;;;;;-2.67;100.00;96243.31;5030902;28;102592;-59
2022/03/04 00:28:34;;;;;;;15.47;10.53;;;;;;;-2.54;100.00;96248.78;5030054;28;101887;-59
2022/03/04 00:31:01;;;;;;;14.83;10.53;;;;;;;-2.60;100.00;96251.25;5029965;28;105690;-60
2022/03/04 00:33:28;;;;;;;17.00;11.10;;;;;;;-2.83;100.00;96256.44;5031026;28;103180;-59
2022/03/04 00:35:55;;;;;;;16.30;10.90;;;;;;;-2.57;100.00;96256.91;5029471;28;101891;-59
2022/03/04 00:38:23;;;;;;;14.83;11.00;;;;;;;-2.50;100.00;96252.66;5030121;28;105409;-59
2022/03/04 00:40:51;;;;;;;14.90;10.37;;;;;;;-2.56;100.00;96245.53;5031168;28;102879;-59
2022/03/04 00:43:18;;;;;;;16.17;10.77;;;;;;;-2.61;100.00;96245.25;5029674;28;101991;-59
2022/03/04 00:45:46;;;;;;;19.00;11.70;;;;;;;-2.64;100.00;96248.19;5032620;28;105359;-59
2022/03/04 00:48:13;;;;;;;17.97;11.90;;;;;;;-2.91;100.00;96251.28;5029608;28;101948;-59
2022/03/04 00:50:40;;;;;;;16.57;10.73;;;;;;;-3.02;100.00;96251.66;5029881;28;104773;-59
2022/03/04 00:53:07;;;;;;;18.00;11.13;;;;;;;-3.05;100.00;96244.22;5029292;28;105704;-59
2022/03/04 00:55:36;;;;;;;15.13;11.17;;;;;;;-2.83;100.00;96246.03;5029684;28;101901;-59
2022/03/04 00:58:05;;;;;;;18.97;11.80;;;;;;;-2.77;100.00;96253.16;5029239;28;103712;-59
2022/03/04 01:00:33;;;;;;;17.57;12.03;;;;;;;-2.64;100.00;96242.97;5030720;28;103154;-59
2022/03/04 01:03:00;;;;;;;16.90;11.17;;;;;;;-2.64;100.00;96240.38;5029729;28;102017;-59
2022/03/04 01:05:27;;;;;;;20.37;12.37;;;;;;;-2.89;100.00;96241.50;5029619;28;105568;-59
2022/03/04 01:07:54;;;;;;;14.97;11.63;;;;;;;-2.76;100.00;96246.16;5033799;28;103087;-60
2022/03/04 01:10:21;;;;;;;16.63;10.67;;;;;;;-2.76;100.00;96249.56;5030819;28;102953;-59
2022/03/04 01:12:48;;;;;;;13.33;10.63;;;;;;;-2.61;100.00;96240.03;5028922;28;105353;-60
2022/03/04 01:15:17;;;;;;;17.13;11.30;;;;;;;-2.78;100.00;96245.53;5029342;28;101945;-60
2022/03/04 01:17:44;;;;;;;14.87;11.30;;;;;;;-2.74;100.00;96246.81;5029454;28;104092;-59
2022/03/04 01:20:11;;;;;;;14.33;10.77;;;;;;;-3.06;100.00;96239.97;5028546;28;105274;-59
2022/03/04 01:22:38;;;;;;;15.80;11.07;;;;;;;-3.08;100.00;96234.13;5029213;28;102055;-59
2022/03/04 01:25:07;;;;;;;16.23;11.40;;;;;;;-3.20;100.00;96239.88;5029360;28;103776;-59
2022/03/04 01:27:34;;;;;;;15.73;11.43;;;;;;;-3.09;100.00;96239.50;5028519;28;105082;-59
2022/03/04 01:30:01;;;;;;;20.37;11.90;;;;;;;-3.08;100.00;96241.94;5032428;28;101853;-60
2022/03/04 01:32:30;;;;;;;15.37;11.90;;;;;;;-3.06;100.00;96233.97;5028703;28;105784;-59
2022/03/04 01:34:57;;;;;;;18.33;11.73;;;;;;;-2.97;100.00;96238.94;5028489;27;101930;-60
2022/03/04 01:37:24;;;;;;;16.73;11.87;;;;;;;-2.94;100.00;96237.81;5028959;28;104949;-60
2022/03/04 01:39:51;;;;;;;15.10;11.03;;;;;;;-2.84;100.00;96246.22;5028583;28;104420;-59
2022/03/04 01:42:18;;;;;;;17.17;11.53;;;;;;;-3.22;100.00;96242.66;5028645;28;102488;-60
2022/03/04 01:44:46;;;;;;;18.07;10.97;;;;;;;-3.26;100.00;96237.97;5028946;28;105636;-60
2022/03/04 01:47:13;;;;;;;16.30;11.20;;;;;;;-3.17;100.00;96229.94;5028298;28;105424;-60
2022/03/04 01:49:42;;;;;;;15.90;11.00;;;;;;;-3.14;100.00;96234.81;5028922;28;101870;-60
2022/03/04 01:52:09;;;;;;;19.37;11.60;;;;;;;-3.49;100.00;96227.47;5031846;28;103761;-59
2022/03/04 01:54:37;;;;;;;15.70;11.00;;;;;;;-3.34;100.00;96230.22;5030054;28;102008;-59
2022/03/04 01:57:04;;;;;;;18.00;11.53;;;;;;;-3.27;100.00;96231.94;5028676;28;105122;-60
2022/03/04 01:59:31;;;;;;;17.43;12.17;;;;;;;-3.55;100.00;96233.34;5062321;27;105829;-59
2022/03/04 02:01:58;;;;;;;20.33;12.13;;;;;;;-3.35;100.00;96237.19;5028672;28;102152;-59
2022/03/04 02:04:27;;;;;;;18.27;12.37;;;;;;;-3.27;100.00;96239.75;5028758;28;104822;-59
2022/03/04 02:06:55;;;;;;;15.27;11.50;;;;;;;-3.58;100.00;96245.88;5029251;27;102735;-59
2022/03/04 02:09:22;;;;;;;17.40;10.90;;;;;;;-3.58;100.00;96248.47;5028662;28;101971;-60
2022/03/04 02:11:50;;;;;;;18.20;12.07;;;;;;;-3.52;100.00;96246.03;5028520;28;105349;-60
2022/03/04 02:14:17;;;;;;;16.17;11.20;;;;;;;-3.39;100.00;96243.69;5031187;27;101986;-59
2022/03/04 02:16:49;;;;;;;17.53;11.80;;;;;;;-3.29;100.00;96246.91;5028623;28;104861;-59
2022/03/04 02:19:17;;;;;;;19.23;12.07;;;;;;;-3.46;100.00;96241.94;5061711;27;105576;-59
2022/03/04 02:21:52;;;;;;;17.97;11.67;;;;;;;-3.56;100.00;96244.72;5030041;27;101740;-59
2022/03/04 02:24:22;;;;;;;16.03;10.83;;;;;;;-3.69;100.00;96241.84;5028207;28;105831;-59
2022/03/04 02:26:50;;;;;;;17.17;11.77;;;;;;;-3.49;100.00;96247.47;5027730;28;105913;-60
2022/03/04 02:29:17;;;;;;;16.27;11.37;;;;;;;-3.52;100.00;96240.81;5028090;28;101926;-59
2022/03/04 02:31:44;;;;;;;17.13;11.53;;;;;;;-3.72;100.00;96246.56;5027844;28;105084;-59
2022/03/04 02:34:11;;;;;;;15.43;11.03;;;;;;;-3.63;100.00;96241.19;5031136;28;105566;-59
2022/03/04 02:36:39;;;;;;;17.47;11.60;;;;;;;-3.52;100.00;96242.59;5028031;28;105260;-59
2022/03/04 02:39:08;;;;;;;17.13;11.83;;;;;;;-3.55;100.00;96246.34;5010746;28;104946;-59
2022/03/04 02:41:35;;;;;;;15.47;11.50;;;;;;;-3.63;100.00;96238.59;5027918;28;102332;-59
2022/03/04 02:44:05;;;;;;;16.30;11.17;;;;;;;-3.64;100.00;96231.78;5027916;28;103818;-59
2022/03/04 02:46:33;;;;;;;16.43;10.77;;;;;;;-3.84;100.00;96237.50;5026414;28;104153;-59
2022/03/04 02:49:01;;;;;;;17.70;11.90;;;;;;;-3.77;100.00;96231.47;5027957;28;101903;-59
2022/03/04 02:51:28;;;;;;;17.80;12.30;;;;;;;-3.70;100.00;96227.25;5028093;28;105215;-59
2022/03/04 02:53:55;;;;;;;17.77;12.83;;;;;;;-3.69;100.00;96226.28;5027166;28;105868;-59
2022/03/04 02:56:23;;;;;;;16.67;11.63;;;;;;;-3.84;100.00;96237.50;5031360;28;102153;-59
2022/03/04 02:58:51;;;;;;;16.77;11.77;;;;;;;-4.09;100.00;96233.34;5027174;28;105407;-59
2022/03/04 03:01:18;;;;;;;15.87;11.03;;;;;;;-4.13;100.00;96239.81;5027747;28;101876;-59
2022/03/04 03:03:47;;;;;;;18.73;11.47;;;;;;;-4.21;100.00;96232.84;5027851;28;105195;-59
2022/03/04 03:06:14;;;;;;;18.40;11.90;;;;;;;-4.16;100.00;96230.56;5027131;28;105471;-59
2022/03/04 03:08:41;;;;;;;17.63;11.73;;;;;;;-4.16;100.00;96227.97;5027737;28;102030;-59
2022/03/04 03:11:08;;;;;;;16.53;12.03;;;;;;;-4.12;100.00;96220.66;5029316;28;102359;-59
2022/03/04 03:13:39;;;;;;;16.43;11.30;;;;;;;-3.96;100.00;96224.06;5027151;28;104034;-59
2022/03/04 03:16:06;;;;;;;16.27;11.50;;;;;;;-4.19;100.00;96219.72;5029111;28;101945;-59
2022/03/04 03:18:33;;;;;;;18.50;11.97;;;;;;;-4.37;100.00;96213.91;5030652;28;105631;-59
2022/03/04 03:21:00;;;;;;;14.40;10.73;;;;;;;-4.43;100.00;96217.94;5027411;28;101895;-59
2022/03/04 03:23:27;;;;;;;16.17;11.20;;;;;;;-4.49;100.00;96210.81;5028801;28;102498;-59
2022/03/04 03:25:54;;;;;;;15.70;11.60;;;;;;;-4.37;100.00;96201.72;5027315;28;102611;-59
2022/03/04 03:28:22;;;;;;;15.33;10.90;;;;;;;-4.25;100.00;96210.78;5028940;28;101828;-59
2022/03/04 03:30:50;;;;;;;18.80;12.40;;;;;;;-4.37;100.00;96209.50;5028660;27;102948;-59
2022/03/04 03:33:17;;;;;;;15.00;11.10;;;;;;;-4.44;100.00;96210.31;5028071;28;103812;-59
2022/03/04 03:35:44;;;;;;;16.50;11.60;;;;;;;-4.23;100.00;96210.63;5028891;27;102170;-59
2022/03/04 03:38:11;;;;;;;16.37;11.10;;;;;;;-4.17;100.00;96215.97;5028777;27;102186;-59
2022/03/04 03:40:38;;;;;;;17.63;12.23;;;;;;;-4.20;100.00;96212.91;5030159;28;103820;-59
2022/03/04 03:43:05;;;;;;;15.10;10.70;;;;;;;-4.26;100.00;96213.56;5026459;28;105408;-59
2022/03/04 03:45:32;;;;;;;16.43;11.30;;;;;;;-4.21;100.00;96213.88;5027269;27;104589;-59
2022/03/04 03:48:01;;;;;;;17.00;11.90;;;;;;;-4.18;100.00;96219.56;5028628;27;102107;-59
2022/03/04 03:50:28;;;;;;;18.77;11.63;;;;;;;-4.38;100.00;96218.25;5027265;28;104040;-59
2022/03/04 03:52:54;;;;;;;15.43;11.40;;;;;;;-4.18;100.00;96231.72;5027963;28;101736;-59
2022/03/04 03:55:21;;;;;;;18.53;11.30;;;;;;;-4.20;100.00;96234.47;5027013;28;101851;-59
2022/03/04 03:57:48;;;;;;;20.13;11.97;;;;;;;-4.11;100.00;96225.69;5029270;27;104037;-59
2022/03/04 04:00:16;;;;;;;16.57;11.27;;;;;;;-4.23;100.00;96227.03;5031448;28;103206;-59
2022/03/04 04:02:43;;;;;;;14.87;11.03;;;;;;;-4.34;100.00;96222.16;5034005;28;102095;-59
2022/03/04 04:05:13;;;;;;;17.47;11.73;;;;;;;-4.33;100.00;96226.38;5031110;28;103137;-59
2022/03/04 04:07:40;;;;;;;17.40;12.23;;;;;;;-4.21;100.00;96219.88;5031615;27;101939;-59
2022/03/04 04:10:08;;;;;;;16.90;12.00;;;;;;;-4.10;100.00;96226.53;5032089;28;101672;-59
2022/03/04 04:12:35;;;;;;;19.00;12.00;;;;;;;-4.17;100.00;96225.53;5031255;28;102604;-59
2022/03/04 04:15:03;;;;;;;19.27;12.47;;;;;;;-4.20;100.00;96229.28;5031718;28;102099;-59
2022/03/04 04:17:30;;;;;;;19.00;11.60;;;;;;;-4.35;100.00;96233.53;5030346;28;105220;-59
2022/03/04 04:19:56;;;;;;;16.20;11.70;;;;;;;-4.65;100.00;96231.56;5029877;28;105201;-59
2022/03/04 04:22:25;;;;;;;17.17;11.60;;;;;;;-4.70;100.00;96248.59;5035280;28;102330;-59
2022/03/04 04:24:52;;;;;;;19.23;11.40;;;;;;;-4.67;100.00;96246.47;5029679;28;104914;-59
2022/03/04 04:27:19;;;;;;;17.80;12.27;;;;;;;-4.67;100.00;96238.69;5030026;28;101991;-59
2022/03/04 04:29:46;;;;;;;18.63;11.90;;;;;;;-4.60;100.00;96244.84;5029845;28;105153;-59
2022/03/04 04:32:13;;;;;;;17.53;11.93;;;;;;;-4.47;100.00;96246.97;5029610;28;105057;-59
2022/03/04 04:34:40;;;;;;;17.83;12.10;;;;;;;-4.45;100.00;96247.63;5030011;28;101856;-59
2022/03/04 04:37:07;;;;;;;17.57;12.60;;;;;;;-4.56;100.00;96246.16;5029835;28;103654;-59
2022/03/04 04:39:36;;;;;;;18.60;13.23;;;;;;;-4.48;100.00;96243.56;5029609;28;105180;-59
2022/03/04 04:42:03;;;;;;;17.87;12.77;;;;;;;-4.57;100.00;96236.75;5029863;28;101834;-59
2022/03/04 04:44:30;;;;;;;18.40;12.80;;;;;;;-4.48;100.00;96243.56;5032593;28;105114;-59
2022/03/04 04:46:57;;;;;;;18.40;12.63;;;;;;;-4.40;100.00;96251.38;5029962;28;101884;-59
2022/03/04 04:49:25;;;;;;;19.20;11.93;;;;;;;-4.62;100.00;96264.16;5029772;28;105499;-59
2022/03/04 04:51:52;;;;;;;16.00;11.63;;;;;;;-4.67;100.00;96262.03;5029116;28;106520;-59
2022/03/04 04:54:19;;;;;;;17.83;12.07;;;;;;;-4.51;100.00;96267.25;5029544;28;101948;-59
2022/03/04 04:56:47;;;;;;;17.20;11.57;;;;;;;-4.59;100.00;96271.63;5029846;28;104066;-59
2022/03/04 04:59:14;;;;;;;15.87;10.90;;;;;;;-4.59;100.00;96263.84;5029084;28;105159;-59
2022/03/04 05:01:41;;;;;;;17.97;12.00;;;;;;;-4.62;100.00;96267.56;5029792;28;102030;-59
2022/03/04 05:04:09;;;;;;;18.50;12.23;;;;;;;-4.55;100.00;96271.13;5029380;28;104604;-59
2022/03/04 05:06:35;;;;;;;21.27;12.80;;;;;;;-4.67;100.00;96274.19;5032537;28;105698;-59
2022/03/04 05:09:03;;;;;;;18.60;11.80;;;;;;;-4.54;100.00;96270.16;5028786;27;104849;-59
2022/03/04 05:11:30;;;;;;;21.00;12.73;;;;;;;-4.66;100.00;96279.22;5028912;28;105424;-59
2022/03/04 05:13:58;;;;;;;21.27;13.13;;;;;;;-4.85;100.00;96278.69;5029264;28;101858;-59
2022/03/04 05:16:25;;;;;;;19.60;12.63;;;;;;;-4.69;100.00;96282.13;5029528;28;103578;-59
2022/03/04 05:18:52;;;;;;;17.67;11.30;;;;;;;-4.68;100.00;96280.34;5030071;28;102660;-59
2022/03/04 05:21:19;;;;;;;21.97;13.03;;;;;;;-4.80;100.00;96279.03;5030919;28;101860;-59
2022/03/04 05:24:02;;;;;;;21.07;12.60;;;;;;;-4.70;100.00;96280.50;5029172;28;105795;-59
2022/03/04 05:26:30;;;;;;;21.07;13.13;;;;;;;-4.59;100.00;96290.56;5028984;28;105820;-59
2022/03/04 05:29:00;;;;;;;20.10;13.80;;;;;;;-4.73;100.00;96291.22;5032538;28;101902;-59
2022/03/04 05:31:27;;;;;;;21.23;12.90;;;;;;;-4.88;100.00;96300.56;5030028;28;102738;-59
2022/03/04 05:33:55;;;;;;;20.37;12.30;;;;;;;-4.90;100.00;96305.13;5030505;27;101928;-59
2022/03/04 05:36:22;;;;;;;18.47;11.77;;;;;;;-4.90;100.00;96305.13;5030587;28;102346;-59
2022/03/04 05:38:49;;;;;;;19.13;11.80;;;;;;;-4.91;100.00;96303.47;5029775;28;101762;-59
2022/03/04 05:41:17;;;;;;;21.30;12.93;;;;;;;-4.78;100.00;96306.44;5030523;28;101798;-59
2022/03/04 05:43:45;;;;;;;21.70;14.03;;;;;;;-4.67;100.00;96316.50;5030348;27;102331;-59
2022/03/04 05:46:14;;;;;;;18.17;12.83;;;;;;;-4.80;100.00;96315.34;5029714;27;102821;-59
2022/03/04 05:48:42;;;;;;;20.20;13.20;;;;;;;-4.66;100.00;96312.13;5030188;27;101837;-59
2022/03/04 05:51:09;;;;;;;16.43;12.33;;;;;;;-4.91;100.00;96329.41;5033077;28;102399;-59
2022/03/04 05:53:37;;;;;;;22.53;13.07;;;;;;;-4.74;100.00;96331.06;5028618;28;101956;-59
2022/03/04 05:56:06;;;;;;;19.47;11.90;;;;;;;-4.74;100.00;96341.44;5030196;28;102300;-59
2022/03/04 05:58:34;;;;;;;20.33;13.60;;;;;;;-4.56;100.00;96331.78;5029552;27;102537;-59
2022/03/04 06:01:02;;;;;;;18.37;12.77;;;;;;;-4.60;100.00;96333.06;5030200;28;101666;-59
2022/03/04 06:03:30;;;;;;;18.43;12.53;;;;;;;-4.62;100.00;96337.59;5029628;27;102261;-59
2022/03/04 06:05:57;;;;;;;19.73;12.20;;;;;;;-4.58;100.00;96344.06;5029478;28;102641;-59
2022/03/04 06:08:24;;;;;;;20.23;13.17;;;;;;;-4.50;100.00;96345.88;5029988;28;102077;-59
2022/03/04 06:10:51;;;;;;;17.17;12.33;;;;;;;-4.41;100.00;96347.53;5030206;28;102478;-59
2022/03/04 06:13:18;;;;;;;18.37;12.57;;;;;;;-4.39;100.00;96343.81;5032804;28;104131;-59
2022/03/04 06:15:45;;;;;;;21.23;13.90;;;;;;;-4.28;100.00;96348.69;5029878;28;102334;-59
2022/03/04 06:18:12;;;;;;;22.00;13.27;;;;;;;-4.35;100.00;96357.28;5029111;28;103267;-59
2022/03/04 06:20:40;;;;;;;22.20;14.27;;;;;;;-4.44;100.00;96353.84;5028249;28;101788;-59
2022/03/04 06:23:08;;;;;;;20.03;13.30;;;;;;;-4.20;100.00;96355.69;5029918;28;102382;-59
2022/03/04 06:25:35;;;;;;;19.73;13.00;;;;;;;-4.18;100.00;96356.31;5027711;28;105549;-59
2022/03/04 06:28:04;;;;;;;21.17;13.20;;;;;;;-4.20;100.00;96361.66;5029637;28;101873;-59
2022/03/04 06:30:34;;;;;;;21.23;14.33;;;;;;;-4.07;100.00;96362.03;5028867;27;102810;-59
2022/03/04 06:35:45;;;;;;;23.90;14.90;;;;;;;-3.97;100.00;96372.25;5026847;28;105591;-59
2022/03/04 06:38:12;;;;;;;22.00;13.37;;;;;;;-4.06;100.00;96375.78;5029061;28;102636;-59
2022/03/04 06:40:40;;;;;;;21.37;13.63;;;;;;;-3.79;100.00;96375.47;5029753;27;101780;-60
2022/03/04 06:43:07;;;;;;;18.80;12.37;;;;;;;-3.66;100.00;96376.63;5028045;28;106721;-59
2022/03/04 06:45:34;;;;;;;20.97;13.60;;;;;;;-3.58;100.00;96389.63;5028722;27;102701;-59
2022/03/04 06:48:02;;;;;;;20.07;14.33;;;;;;;-3.50;100.00;96391.41;5029419;28;102282;-59
2022/03/04 06:50:29;;;;;;;24.33;13.60;;;;;;;-3.32;100.00;96389.41;5029353;28;103026;-59
2022/03/04 06:52:57;;;;;;;24.53;14.83;;;;;;;-3.37;100.00;96392.53;5028962;28;102080;-59
2022/03/04 06:55:25;;;;;;;23.43;14.17;;;;;;;-3.15;100.00;96397.03;5031446;28;101898;-60
2022/03/04 06:57:54;;;;;;;25.03;14.13;;;;;;;-2.98;100.00;96398.59;5026948;28;105476;-60
2022/03/04 07:00:21;;;;;;;25.73;14.50;;;;;;;-2.79;100.00;96392.22;5029439;28;101712;-60
2022/03/04 07:02:48;;;;;;;23.90;15.00;;;;;;;-2.62;100.00;96396.38;5029199;27;102947;-60
2022/03/04 07:05:15;;;;;;;25.80;15.70;;;;;;;-2.45;100.00;96401.34;5027117;28;103834;-60
2022/03/04 07:07:43;;;;;;;24.80;14.30;;;;;;;-2.23;100.00;96404.94;5027706;28;101959;-60
2022/03/04 07:10:11;;;;;;;22.50;15.17;;;;;;;-2.12;100.00;96392.38;5029429;28;102410;-60
2022/03/04 07:12:38;;;;;;;31.73;16.70;;;;;;;-2.12;100.00;96391.53;5028266;28;102655;-60
2022/03/04 07:15:07;;;;;;;24.07;16.20;;;;;;;-2.08;100.00;96392.81;5027469;28;101831;-61
2022/03/04 07:17:34;;;;;;;23.10;16.03;;;;;;;-1.89;100.00;96392.34;5031639;28;102340;-60
2022/03/04 07:20:01;;;;;;;23.20;15.93;;;;;;;-1.75;100.00;96397.63;5029289;28;101741;-61
2022/03/04 07:22:28;;;;;;;27.23;18.07;;;;;;;-1.61;100.00;96396.06;5029055;27;102795;-60
2022/03/04 07:24:55;;;;;;;22.40;16.27;;;;;;;-1.65;100.00;96398.19;5027503;28;102860;-60
2022/03/04 07:27:24;;;;;;;23.90;16.20;;;;;;;-1.55;100.00;96404.00;5028846;27;101838;-60
2022/03/04 07:29:51;;;;;;;24.73;17.23;;;;;;;-1.44;100.00;96392.31;5026721;28;103602;-61
2022/03/04 07:32:18;;;;;;;26.93;17.50;;;;;;;-1.28;100.00;96397.38;5028427;27;102481;-60
2022/03/04 07:34:45;;;;;;;24.10;16.40;;;;;;;-1.24;100.00;96398.66;5031183;28;102297;-60
2022/03/04 07:37:12;;;;;;;25.03;15.50;;;;;;;-1.23;100.00;96402.88;5031772;28;102410;-60
2022/03/04 07:39:55;;;;;;;21.80;14.90;;;;;;;-0.85;100.00;96405.28;5035502;28;102690;-60
2022/03/04 07:42:23;;;;;;;22.20;13.77;;;;;;;-0.89;100.00;96409.22;5030862;28;104829;-60
2022/03/04 07:44:50;;;;;;;22.37;14.57;;;;;;;-0.80;100.00;96409.97;5031821;28;102718;-60
2022/03/04 07:47:18;;;;;;;22.43;15.07;;;;;;;-0.61;100.00;96407.63;5031688;27;101967;-61
2022/03/04 07:49:45;;;;;;;20.33;14.73;;;;;;;-0.57;100.00;96406.25;5052053;27;105197;-60
2022/03/04 07:52:12;;;;;;;18.90;14.10;;;;;;;-0.59;100.00;96397.81;5026450;28;104631;-60
2022/03/04 07:54:39;;;;;;;20.30;13.97;;;;;;;-0.47;100.00;96408.59;5031650;28;102015;-60
2022/03/04 07:57:06;;;;;;;22.03;15.37;;;;;;;-0.24;100.00;96404.88;5030582;28;105514;-60
2022/03/04 07:59:37;;;;;;;20.13;14.93;;;;;;;-0.02;100.00;96411.75;5030221;28;105303;-60
2022/03/04 08:02:04;;;;;;;21.07;15.30;;;;;;;-0.02;100.00;96414.38;5033827;28;101913;-60
2022/03/04 08:04:31;;;;;;;23.07;14.53;;;;;;;0.08;100.00;96410.47;5029240;28;105544;-60
2022/03/04 08:06:59;;;;;;;23.50;14.53;;;;;;;0.19;100.00;96412.59;5031577;28;102079;-60
2022/03/04 08:09:26;;;;;;;21.43;14.63;;;;;;;0.40;100.00;96424.88;5032151;28;102373;-60
2022/03/04 08:12:00;;;;;;;21.13;15.23;;;;;;;0.35;100.00;96422.00;5031607;28;102639;-60
2022/03/04 08:14:29;;;;;;;19.60;14.80;;;;;;;0.49;100.00;96427.16;5031784;27;101755;-60
2022/03/04 08:16:57;;;;;;;21.33;15.43;;;;;;;0.59;100.00;96434.69;5031754;28;102346;-60
2022/03/04 08:19:41;;;;;;;21.20;15.03;;;;;;;0.72;100.00;96433.00;5029831;28;104141;-60
2022/03/04 08:22:08;;;;;;;50.10;23.90;;;;;;;1.09;100.00;96440.56;5030594;28;101783;-60
2022/03/04 08:24:35;;;;;;;60.97;30.50;;;;;;;1.13;100.00;96433.13;5033216;28;103640;-60
2022/03/04 08:27:02;;;;;;;26.33;17.07;;;;;;;1.29;100.00;96438.06;5029883;28;101891;-61
2022/03/04 08:29:51;;;;;;;35.60;19.43;;;;;;;1.34;100.00;96441.75;5030162;28;105674;-61
2022/03/04 08:32:23;;;;;;;24.07;16.03;;;;;;;1.31;100.00;96441.34;4989327;28;105463;-61
2022/03/04 08:34:50;;;;;;;33.10;18.23;;;;;;;1.60;100.00;96441.09;4990402;28;101814;-61
2022/03/04 08:37:17;;;;;;;22.30;15.43;;;;;;;1.87;100.00;96441.00;4989320;28;105877;-61
2022/03/04 08:39:44;;;;;;;21.17;14.80;;;;;;;1.96;100.00;96436.41;5023140;28;103924;-61
2022/03/04 08:42:15;;;;;;;20.37;14.00;;;;;;;2.07;100.00;96439.28;4989928;28;101938;-61
2022/03/04 08:44:43;;;;;;;23.77;16.50;;;;;;;2.19;100.00;96442.16;4991199;28;105190;-61
2022/03/04 08:47:10;;;;;;;25.37;15.07;;;;;;;2.17;100.00;96444.16;4988934;28;101942;-58
2022/03/04 08:49:45;;;;;;;25.47;18.07;;;;;;;2.26;100.00;96443.81;4989678;28;105301;-61
2022/03/04 08:52:12;;;;;;;19.60;14.20;;;;;;;2.29;100.00;96437.34;4990728;28;102549;-60
2022/03/04 08:54:39;;;;;;;19.60;15.13;;;;;;;2.47;100.00;96435.75;4989801;28;101915;-61
2022/03/04 08:57:06;;;;;;;19.70;14.00;;;;;;;2.33;100.00;96449.88;4989641;28;105231;-60
2022/03/04 08:59:42;;;;;;;21.73;13.97;;;;;;;2.81;100.00;96447.94;4989502;28;105209;-61
2022/03/04 09:02:10;;;;;;;18.80;13.40;;;;;;;2.45;100.00;96450.09;4989510;28;101963;-61
2022/03/04 09:04:36;;;;;;;19.07;12.90;;;;;;;2.78;100.00;96440.47;4989948;28;104886;-61
2022/03/04 09:07:07;;;;;;;19.47;13.43;;;;;;;2.66;100.00;96445.50;4992614;28;105321;-61
2022/03/04 09:09:36;;;;;;;17.47;12.77;;;;;;;2.94;100.00;96443.50;4989750;28;105433;-61
2022/03/04 09:12:05;;;;;;;22.47;14.40;;;;;;;3.39;95.56;96439.25;4988412;28;105460;-60
2022/03/04 09:14:33;;;;;;;21.00;13.37;;;;;;;2.83;86.15;96438.84;4991257;28;101759;-61
2022/03/04 09:16:59;;;;;;;19.57;13.43;;;;;;;3.30;94.18;96448.34;4989651;28;105446;-61
2022/03/04 09:19:30;;;;;;;20.13;13.80;;;;;;;3.73;92.00;96433.72;4990326;28;103043;-61
2022/03/04 09:21:57;;;;;;;17.47;12.63;;;;;;;3.99;81.21;96439.69;4989512;28;101888;-61
2022/03/04 09:24:28;;;;;;;18.40;13.03;;;;;;;4.15;76.41;96430.53;4989129;28;105644;-60
2022/03/04 09:26:55;;;;;;;20.83;13.97;;;;;;;4.36;71.69;96436.28;4988569;28;105089;-60
2022/03/04 09:29:23;;;;;;;18.10;13.17;;;;;;;4.52;66.67;96430.53;4989372;28;101899;-60
2022/03/04 09:31:50;;;;;;;21.30;13.77;;;;;;;4.64;63.09;96422.75;5002566;28;103169;-60
2022/03/04 09:34:19;;;;;;;19.33;14.40;;;;;;;4.57;66.94;96427.25;5009758;28;101898;-60
2022/03/04 09:36:46;;;;;;;18.40;13.93;;;;;;;5.02;65.38;96434.06;5028091;28;102633;-60
2022/03/04 09:39:12;;;;;;;18.47;14.00;;;;;;;5.12;61.79;96423.84;5028385;28;104430;-60
2022/03/04 09:41:44;;;;;;;21.20;13.90;;;;;;;5.13;61.32;96428.09;5030238;28;102007;-60
2022/03/04 09:44:12;;;;;;;21.93;14.33;;;;;;;5.52;58.82;96433.00;5028851;28;105275;-60
2022/03/04 09:46:41;;;;;;;19.27;13.27;;;;;;;5.37;57.31;96429.88;5027930;28;105964;-60
2022/03/04 09:49:08;;;;;;;18.30;13.67;;;;;;;5.46;57.46;96441.78;5029550;28;101829;-60
2022/03/04 09:51:36;;;;;;;18.17;13.60;;;;;;;5.44;55.31;96435.91;5032456;27;103917;-60
2022/03/04 09:54:03;;;;;;;20.27;14.57;;;;;;;5.63;57.98;96434.91;5030205;28;101902;-60
2022/03/04 09:56:31;;;;;;;21.23;13.37;;;;;;;6.01;55.61;96433.69;5029094;27;102843;-60
2022/03/04 09:59:17;;;;;;;22.87;14.17;;;;;;;6.40;52.29;96416.56;5028678;28;105146;-60
2022/03/04 10:01:46;;;;;;;24.37;14.67;;;;;;;5.88;52.50;96417.22;5021977;28;102229;-60
2022/03/04 10:04:14;;;;;;;18.30;13.67;;;;;;;6.33;51.61;96410.59;5030031;28;102554;-60
2022/03/04 10:06:47;;;;;;;19.97;14.07;;;;;;;6.43;51.29;96409.00;5028346;28;105585;-60
2022/03/04 10:10:02;;;;;;;96.60;37.73;;;;;;;6.47;49.01;96404.09;5028538;28;101820;-60
2022/03/04 10:12:29;;;;;;;20.43;14.03;;;;;;;6.69;48.49;96398.06;5030608;27;102820;-60
2022/03/04 10:15:02;;;;;;;19.53;14.10;;;;;;;6.98;49.27;96397.22;5030760;28;104058;-60
2022/03/04 10:17:29;;;;;;;20.73;14.83;;;;;;;7.15;48.54;96403.44;5026881;28;102376;-60
2022/03/04 10:19:59;;;;;;;19.83;14.10;;;;;;;7.20;46.65;96397.50;5027978;28;105365;-60
2022/03/04 10:22:36;;;;;;;20.70;14.40;;;;;;;7.07;47.01;96397.69;5029925;28;101926;-60
2022/03/04 10:25:13;;;;;;;18.00;13.73;;;;;;;7.07;48.46;96397.69;5030132;27;102665;-60
2022/03/04 10:27:48;;;;;;;20.67;13.57;;;;;;;7.26;48.36;96402.66;5029621;27;103063;-60
2022/03/04 10:30:17;;;;;;;18.60;13.50;;;;;;;7.20;47.79;96397.50;5029319;27;103382;-60
2022/03/04 10:32:44;;;;;;;18.27;14.23;;;;;;;7.25;46.67;96393.09;5028604;28;105177;-60
2022/03/04 10:35:14;;;;;;;17.60;13.60;;;;;;;7.56;46.20;96392.78;5029139;28;102691;-60
2022/03/04 10:37:54;;;;;;;17.90;13.57;;;;;;;7.86;45.56;96382.03;5031597;28;101883;-60
2022/03/04 10:40:22;;;;;;;19.83;12.77;;;;;;;7.79;43.55;96381.38;5028834;28;101930;-60
2022/03/04 10:43:01;;;;;;;20.03;13.13;;;;;;;7.92;43.97;96381.09;5029875;27;101775;-60
2022/03/04 10:45:32;;;;;;;19.33;13.87;;;;;;;7.72;43.04;96381.47;5029491;27;101780;-60
2022/03/04 10:48:29;;;;;;;21.50;14.47;;;;;;;7.93;44.30;96383.53;5028800;28;102489;-60
2022/03/04 10:50:57;;;;;;;20.93;13.77;;;;;;;7.67;43.70;96383.19;5029860;28;101770;-60
2022/03/04 10:53:26;;;;;;;19.70;13.57;;;;;;;7.99;44.60;96376.47;5028709;28;102406;-60
2022/03/04 10:55:55;;;;;;;18.90;13.10;;;;;;;8.24;43.44;96375.16;5028794;28;102606;-60
2022/03/04 10:58:37;;;;;;;19.27;15.20;;;;;;;8.17;44.04;96368.34;5031509;28;101940;-60
2022/03/04 11:01:08;;;;;;;21.53;15.40;;;;;;;8.10;43.60;96371.16;5028253;28;102609;-60
2022/03/04 11:03:36;;;;;;;22.67;13.90;;;;;;;8.28;42.99;96373.66;5029778;27;102026;-60
2022/03/04 11:06:05;;;;;;;19.63;13.50;;;;;;;8.18;43.82;96364.69;5029250;27;102362;-60
2022/03/04 11:08:56;;;;;;;19.37;13.13;;;;;;;8.08;43.12;96367.91;5027558;28;102664;-60
2022/03/04 11:11:27;;;;;;;16.00;12.67;;;;;;;8.60;43.93;96366.00;5008040;28;101848;-60
2022/03/04 11:13:58;;;;;;;18.57;12.33;;;;;;;8.29;44.14;96374.47;5019199;28;105701;-60